Time;durP1;ratioP1;P1;durP2;ratioP2;P2;SDS_P1;SDS_P2;PMS_P1;PMS_P2;Temp;Humidity;BMP_temperature;BMP_pressure;BME280_temperature;BME280_humidity;BME280_pressure;Samples;Min_cycle;Max_cycle;Signal;HPM_P1;HPM_P2
2021/07/22 00:04:27;;;;;;;5.35;4.40;;;;;;;17.86;67.32;100713.47;10465326;28;20053;-73
2021/07/22 00:09:29;;;;;;;5.70;5.25;;;;;;;17.47;69.20;100719.81;10465584;28;20493;-71
2021/07/22 00:14:31;;;;;;;4.93;4.45;;;;;;;17.31;69.40;100717.06;10464201;28;20048;-71
2021/07/22 00:19:34;;;;;;;5.20;4.80;;;;;;;17.70;67.65;100715.13;10463328;28;20092;-72
2021/07/22 00:24:36;;;;;;;5.60;5.07;;;;;;;17.35;69.33;100729.25;10464115;28;20513;-72
2021/07/22 00:29:37;;;;;;;4.65;4.35;;;;;;;17.24;70.14;100712.09;10463713;28;20461;-72
2021/07/22 00:34:39;;;;;;;5.38;4.95;;;;;;;17.60;68.49;100712.94;10463711;28;20045;-72
2021/07/22 00:39:41;;;;;;;4.70;4.30;;;;;;;17.42;69.58;100718.31;10464593;28;20463;-71
2021/07/22 00:44:46;;;;;;;4.70;4.25;;;;;;;17.36;70.54;100715.03;10446313;28;20131;-72
2021/07/22 00:49:51;;;;;;;5.07;4.68;;;;;;;17.19;70.83;100720.31;10463017;28;20453;-72
2021/07/22 00:54:53;;;;;;;4.93;4.53;;;;;;;17.15;71.20;100713.41;10462243;28;20064;-72
2021/07/22 00:59:54;;;;;;;8.10;7.20;;;;;;;17.05;71.13;100718.31;10462670;28;20437;-72
2021/07/22 01:04:56;;;;;;;10.10;9.02;;;;;;;17.00;70.70;100723.00;10443910;28;20041;-72
2021/07/22 01:09:58;;;;;;;12.38;10.55;;;;;;;16.96;70.34;100718.75;10460174;28;20059;-73
2021/07/22 01:14:59;;;;;;;10.82;9.80;;;;;;;16.94;70.28;100712.63;10460352;28;20041;-71
2021/07/22 01:20:02;;;;;;;8.30;7.35;;;;;;;17.00;70.30;100711.47;10460034;28;20053;-72
2021/07/22 01:25:06;;;;;;;8.85;7.75;;;;;;;17.16;69.55;100707.16;10461256;28;20136;-72
2021/07/22 01:30:11;;;;;;;6.95;6.25;;;;;;;17.42;67.49;100707.69;10460206;28;20077;-72
2021/07/22 01:35:14;;;;;;;6.82;6.28;;;;;;;17.06;69.64;100704.09;10459458;28;20041;-72
2021/07/22 01:40:18;;;;;;;5.78;5.20;;;;;;;17.21;69.13;100710.44;10461553;28;20034;-71
2021/07/22 01:45:21;;;;;;;5.80;5.10;;;;;;;17.45;68.68;100703.09;10460951;28;20060;-72
2021/07/22 01:50:23;;;;;;;5.97;5.45;;;;;;;17.43;68.78;100704.09;10459927;28;20482;-72
2021/07/22 01:55:26;;;;;;;4.85;4.45;;;;;;;17.44;68.39;100697.84;10442336;28;20052;-72
2021/07/22 02:00:33;;;;;;;5.78;5.13;;;;;;;17.29;68.70;100692.34;10442384;28;20049;-72
2021/07/22 02:05:36;;;;;;;5.05;4.65;;;;;;;17.31;69.02;100690.50;10442938;28;20041;-71
2021/07/22 02:10:38;;;;;;;5.60;5.20;;;;;;;17.41;67.62;100690.88;10458462;28;20045;-72
2021/07/22 02:15:40;;;;;;;5.40;4.90;;;;;;;17.14;68.28;100687.78;10458122;28;20063;-73
2021/07/22 02:20:43;;;;;;;5.43;4.60;;;;;;;17.24;67.73;100698.81;10518326;22;20079;-75
2021/07/22 02:25:46;;;;;;;5.20;4.70;;;;;;;17.04;68.06;100697.13;10547930;28;20096;-75
2021/07/22 02:30:48;;;;;;;5.18;4.78;;;;;;;16.99;67.57;100699.13;10524755;28;20055;-75
2021/07/22 02:35:51;;;;;;;5.30;4.90;;;;;;;16.97;67.52;100696.56;10526076;28;20048;-75
2021/07/22 02:41:15;;;;;;;5.60;4.72;;;;;;;16.76;68.13;100698.44;10541467;28;20044;-75
2021/07/22 02:46:17;;;;;;;5.78;5.25;;;;;;;16.76;67.88;100694.91;10543411;28;20028;-76
2021/07/22 02:51:28;;;;;;;5.55;4.90;;;;;;;16.83;67.08;100693.72;10524994;28;20047;-76
2021/07/22 02:56:31;;;;;;;5.55;5.03;;;;;;;16.52;68.67;100708.38;10523726;28;20048;-76
2021/07/22 03:01:37;;;;;;;7.65;6.20;;;;;;;16.64;67.07;100701.63;10524963;28;20036;-75
2021/07/22 03:06:43;;;;;;;6.57;6.07;;;;;;;16.50;69.02;100706.69;10524939;28;20040;-75
2021/07/22 03:11:45;;;;;;;5.90;5.30;;;;;;;16.69;66.81;100704.94;10544262;28;20051;-75
2021/07/22 03:16:46;;;;;;;5.47;4.97;;;;;;;16.63;67.04;100706.06;10523012;28;20501;-75
2021/07/22 03:21:59;;;;;;;5.80;5.20;;;;;;;16.59;67.07;100707.13;10541384;28;20039;-75
2021/07/22 03:27:19;;;;;;;5.45;4.85;;;;;;;16.41;67.77;100705.31;10541291;28;20477;-75
2021/07/22 03:32:22;;;;;;;6.78;5.32;;;;;;;16.45;67.50;100709.56;10524441;28;20079;-75
2021/07/22 03:37:25;;;;;;;5.80;5.20;;;;;;;16.33;67.70;100704.81;10522896;28;20040;-75
2021/07/22 03:42:29;;;;;;;5.05;4.65;;;;;;;16.33;67.23;100710.09;10522365;28;20570;-75
2021/07/22 03:47:46;;;;;;;4.70;4.30;;;;;;;16.25;67.59;100705.16;10540730;28;20040;-75
2021/07/22 03:52:53;;;;;;;5.72;5.22;;;;;;;16.47;66.44;100710.38;10525010;28;20040;-76
2021/07/22 03:57:56;;;;;;;4.75;4.32;;;;;;;16.38;66.57;100708.16;10541120;28;20032;-75
2021/07/22 04:03:02;;;;;;;5.30;4.78;;;;;;;16.29;67.30;100700.56;10523963;28;20458;-75
2021/07/22 04:08:07;;;;;;;5.45;4.85;;;;;;;16.55;66.63;100697.59;10540813;28;20032;-76
2021/07/22 04:13:18;;;;;;;5.07;4.57;;;;;;;16.44;66.58;100702.53;10540982;28;20071;-75
2021/07/22 04:18:49;;;;;;;5.35;4.85;;;;;;;16.49;67.44;100703.19;10451803;28;20047;-75
2021/07/22 04:24:04;;;;;;;5.28;4.47;;;;;;;16.49;67.10;100702.34;10521302;28;20094;-76
2021/07/22 04:29:16;;;;;;;4.97;4.57;;;;;;;16.76;65.63;100705.53;10521652;28;20468;-75
2021/07/22 04:34:18;;;;;;;5.65;4.60;;;;;;;16.77;66.24;100708.13;10539578;28;20040;-75
2021/07/22 04:39:39;;;;;;;5.07;4.68;;;;;;;16.54;67.85;100708.28;10524544;28;20080;-75
2021/07/22 04:44:51;;;;;;;5.55;5.05;;;;;;;16.80;65.56;100707.97;10527601;28;20040;-75
2021/07/22 04:50:13;;;;;;;5.22;4.72;;;;;;;17.03;64.38;100712.19;10546456;28;20082;-76
2021/07/22 04:55:38;;;;;;;5.82;5.00;;;;;;;17.08;64.76;100711.97;10538214;28;20447;-76
2021/07/22 05:00:40;;;;;;;6.78;5.80;;;;;;;17.16;64.66;100707.16;10532369;28;20048;-75
2021/07/22 05:05:43;;;;;;;7.57;6.53;;;;;;;17.21;64.29;100705.13;10546148;28;20501;-76
2021/07/22 05:11:23;;;;;;;12.80;5.10;;;;;;;16.93;65.95;100702.97;10545697;28;20123;-75
2021/07/22 05:16:54;;;;;;;6.72;5.35;;;;;;;17.28;65.05;100708.38;10520960;28;20127;-76
2021/07/22 05:22:17;;;;;;;10.88;7.97;;;;;;;17.14;66.15;100703.72;10549336;28;20044;-75
2021/07/22 05:27:28;;;;;;;7.85;6.93;;;;;;;17.12;66.21;100709.09;10527825;28;20047;-76
2021/07/22 05:32:47;;;;;;;8.15;6.63;;;;;;;17.07;66.47;100705.81;10528654;28;20054;-75
2021/07/22 05:38:17;;;;;;;10.80;5.65;;;;;;;17.79;63.44;100699.59;10529479;28;20048;-75
2021/07/22 05:43:18;;;;;;;6.53;5.18;;;;;;;18.09;62.88;100697.16;10548533;28;20048;-75
2021/07/22 05:48:20;;;;;;;5.47;4.95;;;;;;;17.90;64.47;100704.41;10545815;28;20044;-75
2021/07/22 05:53:22;;;;;;;6.03;5.53;;;;;;;18.04;64.17;100695.69;10544408;28;20513;-75
2021/07/22 05:58:23;;;;;;;6.50;5.82;;;;;;;18.39;62.75;100704.47;10527479;28;20547;-75
2021/07/22 06:03:25;;;;;;;8.23;6.50;;;;;;;18.07;64.50;100709.69;10529938;28;20052;-75
2021/07/22 06:08:27;;;;;;;6.88;6.15;;;;;;;18.30;63.29;100708.50;10545572;28;20434;-76
2021/07/22 06:13:28;;;;;;;7.03;5.05;;;;;;;18.79;63.17;100710.34;10527600;28;20457;-76
2021/07/22 06:18:30;;;;;;;6.75;5.78;;;;;;;18.88;62.58;100707.16;10526368;28;20119;-76
2021/07/22 06:23:32;;;;;;;9.40;5.40;;;;;;;19.26;62.46;100705.00;10544525;28;20052;-77
2021/07/22 06:28:33;;;;;;;11.63;5.45;;;;;;;19.38;62.28;100706.94;10528638;28;20044;-76
2021/07/22 06:33:35;;;;;;;4.93;4.53;;;;;;;19.25;62.56;100705.06;10527768;28;20090;-75
2021/07/22 06:38:36;;;;;;;6.15;5.55;;;;;;;19.76;61.13;100701.22;10543365;28;20497;-75
2021/07/22 06:43:38;;;;;;;5.68;4.78;;;;;;;19.70;61.08;100706.03;10543531;28;20044;-76
2021/07/22 06:48:44;;;;;;;6.53;5.32;;;;;;;19.40;61.13;100701.53;10528076;28;20055;-76
2021/07/22 06:53:46;;;;;;;6.05;5.45;;;;;;;19.81;61.72;100701.81;10544757;28;20074;-75
2021/07/22 06:58:50;;;;;;;6.97;6.38;;;;;;;20.17;60.11;100697.88;10544193;28;20040;-75
2021/07/22 07:03:51;;;;;;;5.90;4.82;;;;;;;20.37;59.19;100694.84;10542738;28;20044;-75
2021/07/22 07:08:53;;;;;;;10.13;6.03;;;;;;;20.74;58.65;100697.03;10544561;28;20040;-75
2021/07/22 07:13:55;;;;;;;5.40;5.00;;;;;;;20.81;57.74;100696.56;10525539;28;20523;-76
2021/07/22 07:18:56;;;;;;;7.25;5.30;;;;;;;21.01;57.92;100694.41;10541265;28;20036;-76
2021/07/22 07:23:58;;;;;;;10.27;8.23;;;;;;;21.31;56.49;100694.22;10541872;28;20452;-76
2021/07/22 07:28:59;;;;;;;9.13;8.27;;;;;;;21.38;57.43;100690.19;10543162;28;20087;-76
2021/07/22 07:34:01;;;;;;;8.32;7.53;;;;;;;21.15;57.37;100689.88;10527448;28;20063;-77
2021/07/22 07:39:03;;;;;;;8.55;6.88;;;;;;;21.37;56.11;100683.16;10541450;28;20036;-76
2021/07/22 07:44:04;;;;;;;8.20;6.40;;;;;;;21.64;55.58;100685.78;10523142;28;20489;-75
2021/07/22 07:49:06;;;;;;;14.50;6.22;;;;;;;21.03;55.91;100684.47;10541628;28;20040;-75
2021/07/22 07:54:07;;;;;;;6.78;5.45;;;;;;;21.45;57.24;100682.66;10543052;28;20044;-76
2021/07/22 07:59:09;;;;;;;7.82;5.22;;;;;;;21.84;55.60;100685.31;10541779;28;20386;-76
2021/07/22 08:04:10;;;;;;;6.43;5.30;;;;;;;22.28;53.73;100685.91;10541342;28;20066;-75
2021/07/22 08:09:12;;;;;;;6.38;5.47;;;;;;;22.65;52.50;100681.44;10541159;28;20044;-76
2021/07/22 08:14:14;;;;;;;6.15;5.50;;;;;;;22.10;52.92;100683.50;10541882;28;20059;-76
2021/07/22 08:19:16;;;;;;;10.60;5.55;;;;;;;21.80;53.99;100681.13;10540553;22;20481;-73
2021/07/22 08:24:17;;;;;;;11.18;6.35;;;;;;;21.98;54.14;100680.81;10548157;28;20043;-73
2021/07/22 08:29:19;;;;;;;7.30;6.50;;;;;;;22.37;52.93;100679.88;10529673;28;20509;-74
2021/07/22 08:34:21;;;;;;;7.95;7.15;;;;;;;22.74;51.40;100670.06;10529653;28;20102;-74
2021/07/22 08:39:23;;;;;;;7.65;7.05;;;;;;;22.97;50.62;100659.50;10530021;28;20039;-74
2021/07/22 08:44:24;;;;;;;8.57;7.90;;;;;;;23.54;48.36;100654.28;10529473;28;20043;-74
2021/07/22 08:49:27;;;;;;;8.10;7.30;;;;;;;23.88;47.30;100655.28;10529714;28;20048;-74
2021/07/22 08:54:29;;;;;;;8.60;7.93;;;;;;;23.88;48.99;100657.13;10529173;28;20142;-75
2021/07/22 08:59:33;;;;;;;9.20;8.40;;;;;;;23.83;47.34;100646.72;10529516;28;20036;-74
2021/07/22 09:04:52;;;;;;;9.10;8.20;;;;;;;24.22;48.23;100649.13;10547166;28;20048;-74
2021/07/22 09:10:06;;;;;;;8.80;8.10;;;;;;;24.67;45.93;100644.59;10496779;28;20043;-74
2021/07/22 09:15:10;;;;;;;9.25;8.45;;;;;;;24.57;46.05;100643.63;10545971;28;20040;-74
2021/07/22 09:20:34;;;;;;;10.50;9.43;;;;;;;25.03;45.18;100637.19;10547778;28;20047;-74
2021/07/22 09:25:44;;;;;;;10.20;9.40;;;;;;;25.30;46.71;100642.13;10514058;28;20044;-74
2021/07/22 09:31:07;;;;;;;10.43;9.48;;;;;;;25.17;43.92;100643.16;10504823;28;20047;-75
2021/07/22 09:36:18;;;;;;;9.82;8.13;;;;;;;24.91;44.30;100622.91;10505814;28;20053;-74
2021/07/22 09:41:22;;;;;;;10.52;9.60;;;;;;;24.49;44.79;100635.34;10527626;28;20417;-75
2021/07/22 09:46:39;;;;;;;10.98;10.18;;;;;;;23.92;44.77;100634.44;10547251;28;20036;-75
2021/07/22 09:51:41;;;;;;;11.43;10.23;;;;;;;24.05;44.40;100628.94;10526958;28;20421;-76
2021/07/22 09:56:43;;;;;;;10.63;9.60;;;;;;;23.36;46.80;100626.19;10547361;28;20409;-75
2021/07/22 10:01:46;;;;;;;11.75;10.85;;;;;;;23.35;46.37;100625.34;10544765;28;20512;-76
2021/07/22 10:06:48;;;;;;;12.02;11.15;;;;;;;23.11;46.96;100624.50;10544928;28;20036;-74
2021/07/22 10:11:51;;;;;;;11.15;10.23;;;;;;;23.40;47.04;100619.63;10544220;28;20460;-74
2021/07/22 10:16:55;;;;;;;11.35;10.55;;;;;;;23.43;47.92;100611.34;10543660;28;20086;-73
2021/07/22 10:21:59;;;;;;;12.38;11.48;;;;;;;24.25;43.57;100611.25;10564464;28;20043;-74
2021/07/22 10:27:02;;;;;;;12.27;11.38;;;;;;;24.36;43.18;100608.56;10568079;27;20565;-75
2021/07/22 10:32:04;;;;;;;11.85;10.88;;;;;;;24.38;45.35;100607.47;10629242;27;20039;-74
2021/07/22 10:37:06;;;;;;;11.20;10.40;;;;;;;24.20;44.31;100597.31;10629065;27;20091;-75
2021/07/22 10:42:37;;;;;;;12.50;11.50;;;;;;;23.81;45.67;100602.19;10593684;27;20092;-76
2021/07/22 10:47:58;;;;;;;12.95;11.98;;;;;;;23.53;44.89;100595.38;10612822;27;20043;-76
2021/07/22 10:53:00;;;;;;;12.07;11.15;;;;;;;24.14;44.33;100594.16;10630093;27;20043;-76
2021/07/22 10:58:02;;;;;;;13.10;12.00;;;;;;;24.70;44.82;100597.78;10633032;27;20084;-76
2021/07/22 11:03:03;;;;;;;12.13;11.32;;;;;;;24.96;41.03;100588.41;10613774;27;20057;-76
2021/07/22 11:08:21;;;;;;;12.57;11.68;;;;;;;24.45;41.87;100586.34;10630471;27;20054;-74
2021/07/22 11:13:35;;;;;;;13.02;12.02;;;;;;;24.12;43.31;100595.25;10630546;27;20043;-75
2021/07/22 11:18:41;;;;;;;14.85;13.75;;;;;;;23.85;41.25;100584.84;10630641;27;20046;-75
2021/07/22 11:23:52;;;;;;;;;;;;;;;23.75;42.89;100587.41;10630801;27;20131;-74
2021/07/22 11:29:02;;;;;;;14.13;13.13;;;;;;;23.62;40.83;100581.25;10630046;27;19987;-74
2021/07/22 11:34:04;;;;;;;14.38;13.25;;;;;;;23.85;43.34;100576.81;10609849;27;20096;-75
2021/07/22 11:39:06;;;;;;;14.48;13.48;;;;;;;23.74;42.69;100568.75;10594936;27;20454;-74
2021/07/22 11:44:10;;;;;;;14.93;13.73;;;;;;;23.91;41.01;100571.81;10629204;27;20040;-75
2021/07/22 11:49:14;;;;;;;13.95;13.00;;;;;;;24.49;39.52;100562.78;10629294;28;20050;-75
2021/07/22 11:54:18;;;;;;;13.88;12.98;;;;;;;24.42;39.94;100554.34;10634017;27;20047;-75
2021/07/22 11:59:32;;;;;;;14.13;13.13;;;;;;;24.75;39.84;100555.25;10637669;27;20046;-75
2021/07/22 12:04:34;;;;;;;14.68;13.48;;;;;;;24.71;39.44;100556.50;10636877;27;20051;-77
2021/07/22 12:09:53;;;;;;;14.32;13.27;;;;;;;24.77;39.45;100556.81;10636184;27;20039;-75
2021/07/22 12:15:07;;;;;;;13.60;12.70;;;;;;;24.65;38.91;100550.63;10639016;27;20050;-75
2021/07/22 12:20:11;;;;;;;14.57;13.57;;;;;;;24.58;38.58;100545.91;10620948;27;20104;-75
2021/07/22 12:25:14;;;;;;;14.32;13.32;;;;;;;24.77;39.16;100540.69;10623452;27;20051;-75
2021/07/22 12:30:17;;;;;;;14.65;13.52;;;;;;;25.18;39.48;100536.38;10627581;27;20042;-74
2021/07/22 12:35:29;;;;;;;14.40;13.30;;;;;;;25.63;37.41;100542.38;10624590;27;20047;-75
2021/07/22 12:40:32;;;;;;;14.23;13.13;;;;;;;26.36;36.42;100520.69;10640838;27;20410;-75
2021/07/22 12:45:34;;;;;;;15.80;14.32;;;;;;;26.17;36.96;100525.06;10640318;27;20039;-75
2021/07/22 12:50:46;;;;;;;15.07;14.05;;;;;;;25.96;37.99;100516.19;10638759;27;20043;-75
2021/07/22 12:55:58;;;;;;;14.52;13.43;;;;;;;25.98;36.67;100513.34;10638617;27;20046;-77
2021/07/22 13:01:08;;;;;;;15.10;14.10;;;;;;;26.09;36.99;100508.72;10618786;27;20450;-75
2021/07/22 13:06:12;;;;;;;15.45;14.25;;;;;;;25.71;36.44;100506.69;10637150;27;20047;-74
2021/07/22 13:11:15;;;;;;;15.07;14.07;;;;;;;25.67;37.60;100498.00;10617809;27;20043;-74
2021/07/22 13:16:21;;;;;;;15.68;14.57;;;;;;;26.16;36.62;100490.13;10636587;27;20130;-75
2021/07/22 13:21:24;;;;;;;15.75;14.68;;;;;;;25.89;37.41;100483.53;10636465;27;20485;-76
2021/07/22 13:26:25;;;;;;;15.50;14.07;;;;;;;25.78;36.91;100488.19;10600571;27;20451;-74
2021/07/22 13:31:27;;;;;;;15.63;14.20;;;;;;;25.72;38.51;100480.59;10616597;27;20054;-76
2021/07/22 13:36:31;;;;;;;15.40;14.13;;;;;;;25.71;38.82;100478.91;10634800;27;20062;-76
2021/07/22 13:41:33;;;;;;;15.80;14.35;;;;;;;25.83;37.38;100470.63;10635986;27;20031;-75
2021/07/22 13:46:35;;;;;;;16.73;15.30;;;;;;;25.96;38.17;100461.47;10635448;27;20043;-76
2021/07/22 13:51:38;;;;;;;14.63;13.63;;;;;;;26.31;37.49;100453.75;10615263;27;20058;-75
2021/07/22 13:56:40;;;;;;;16.02;14.63;;;;;;;25.76;37.81;100453.28;10615127;27;20047;-74
2021/07/22 14:01:42;;;;;;;14.73;13.68;;;;;;;25.95;36.38;100447.16;10634637;27;20075;-75
2021/07/22 14:06:43;;;;;;;14.45;13.45;;;;;;;25.95;37.00;100444.44;10633289;27;20038;-74
2021/07/22 14:11:45;;;;;;;15.50;14.45;;;;;;;25.89;36.58;100440.44;10632262;27;20118;-76
2021/07/22 14:16:47;;;;;;;15.07;13.98;;;;;;;26.21;36.76;100443.91;10632132;27;20046;-75
2021/07/22 14:21:54;;;;;;;15.88;14.80;;;;;;;25.60;37.42;100443.03;10531720;22;20049;-70
2021/07/22 14:26:56;;;;;;;15.70;14.52;;;;;;;25.94;36.81;100426.56;10460621;28;20037;-71
2021/07/22 14:31:58;;;;;;;15.35;14.35;;;;;;;25.72;38.19;100438.41;10459534;28;20048;-71
2021/07/22 14:37:02;;;;;;;15.25;14.25;;;;;;;25.66;37.03;100434.38;10459610;28;20128;-72
2021/07/22 14:42:05;;;;;;;15.75;14.68;;;;;;;25.97;36.68;100429.00;10441822;28;20095;-72
2021/07/22 14:47:06;;;;;;;15.20;14.20;;;;;;;25.75;39.42;100429.19;10459455;28;20430;-71
2021/07/22 14:52:08;;;;;;;15.13;14.13;;;;;;;25.85;36.58;100427.38;10459498;28;20048;-71
2021/07/22 14:57:10;;;;;;;15.02;13.93;;;;;;;26.61;35.94;100409.66;10458886;28;20041;-71
2021/07/22 15:02:11;;;;;;;15.70;14.70;;;;;;;26.03;37.43;100409.59;10440932;28;20079;-71
2021/07/22 15:07:13;;;;;;;16.45;14.98;;;;;;;25.65;38.15;100408.47;10468364;28;20119;-71
2021/07/22 15:12:15;;;;;;;15.90;14.50;;;;;;;25.30;38.53;100410.72;10483077;28;20045;-71
2021/07/22 15:17:18;;;;;;;15.35;14.10;;;;;;;25.06;38.42;100402.94;10499856;28;20584;-71
2021/07/22 15:22:19;;;;;;;16.08;14.63;;;;;;;25.03;38.53;100406.72;10499787;28;20044;-70
2021/07/22 15:27:21;;;;;;;16.27;15.07;;;;;;;25.18;38.83;100399.19;10499326;28;20509;-71
2021/07/22 15:32:23;;;;;;;16.35;15.30;;;;;;;25.07;39.26;100392.03;10499414;28;20045;-69
2021/07/22 15:37:24;;;;;;;14.88;13.82;;;;;;;25.26;38.99;100388.63;10499761;28;20044;-70
2021/07/22 15:42:26;;;;;;;15.73;14.52;;;;;;;25.51;38.91;100383.78;10499205;28;20049;-71
2021/07/22 15:47:28;;;;;;;16.02;14.90;;;;;;;25.34;39.01;100385.25;10498526;28;20036;-70
2021/07/22 15:52:31;;;;;;;15.63;14.48;;;;;;;24.98;38.37;100375.84;10499180;28;20045;-71
2021/07/22 15:57:32;;;;;;;15.70;14.60;;;;;;;24.83;38.71;100376.16;10499496;28;20037;-72
2021/07/22 16:02:34;;;;;;;15.68;14.48;;;;;;;25.15;38.58;100376.13;10499744;28;20076;-71
2021/07/22 16:07:36;;;;;;;14.52;13.50;;;;;;;25.59;38.00;100363.25;10499592;28;20059;-71
2021/07/22 16:12:38;;;;;;;14.38;13.30;;;;;;;25.34;37.55;100359.19;10499456;28;20048;-70
2021/07/22 16:17:40;;;;;;;16.52;15.23;;;;;;;25.34;38.88;100364.56;10499786;28;20481;-71
2021/07/22 16:22:42;;;;;;;15.45;14.25;;;;;;;24.80;38.58;100359.47;10499030;28;20047;-71
2021/07/22 16:27:43;;;;;;;14.57;13.68;;;;;;;24.42;39.94;100355.50;10499699;28;20037;-69
2021/07/22 16:32:45;;;;;;;15.57;14.48;;;;;;;24.25;41.03;100351.53;10499384;28;20056;-70
2021/07/22 16:37:48;;;;;;;15.25;14.05;;;;;;;24.43;40.37;100346.47;10499365;28;20033;-69
2021/07/22 16:42:49;;;;;;;16.13;15.00;;;;;;;24.49;39.90;100353.16;10506340;28;20055;-70
2021/07/22 16:47:51;;;;;;;14.35;13.35;;;;;;;24.55;40.70;100340.03;10506608;28;20060;-69
2021/07/22 16:52:53;;;;;;;14.48;13.57;;;;;;;24.33;41.52;100346.34;10507175;28;20058;-70
2021/07/22 16:57:54;;;;;;;15.15;13.80;;;;;;;24.11;43.05;100338.41;10506246;28;20044;-70
2021/07/22 17:02:59;;;;;;;14.40;13.40;;;;;;;23.91;42.87;100329.34;10506757;28;20044;-69
2021/07/22 17:08:01;;;;;;;14.43;13.32;;;;;;;23.77;42.45;100330.44;10489581;28;20075;-70
2021/07/22 17:13:03;;;;;;;13.98;12.95;;;;;;;23.66;43.21;100328.66;10505781;28;20482;-70
2021/07/22 17:18:05;;;;;;;14.88;13.23;;;;;;;23.49;43.32;100318.41;10505037;28;20045;-69
2021/07/22 17:23:07;;;;;;;13.82;12.88;;;;;;;23.46;43.12;100326.69;10505721;28;20055;-69
2021/07/22 17:28:08;;;;;;;14.68;13.68;;;;;;;23.38;43.30;100321.13;10487485;28;20064;-69
2021/07/22 17:33:11;;;;;;;13.98;13.00;;;;;;;23.17;44.15;100319.16;10504060;28;20106;-70
2021/07/22 17:38:12;;;;;;;14.57;13.48;;;;;;;23.14;44.18;100316.72;10505126;28;20048;-70
2021/07/22 17:43:14;;;;;;;14.90;13.85;;;;;;;23.16;43.87;100322.00;10504557;28;20102;-69
2021/07/22 17:48:17;;;;;;;16.13;14.60;;;;;;;23.12;45.66;100323.19;10485525;28;20079;-70
2021/07/22 17:53:18;;;;;;;13.38;12.38;;;;;;;23.06;45.01;100316.47;10503580;28;20079;-70
2021/07/22 17:58:20;;;;;;;12.15;11.35;;;;;;;22.87;45.65;100309.00;10503773;28;20375;-70
2021/07/22 18:03:22;;;;;;;13.00;12.10;;;;;;;22.80;46.74;100309.59;10503703;28;20082;-70
2021/07/22 18:08:24;;;;;;;12.13;11.13;;;;;;;22.73;46.00;100313.75;10502470;28;20048;-70
2021/07/22 18:13:26;;;;;;;13.75;12.75;;;;;;;22.75;45.27;100303.75;10502496;28;20079;-71
2021/07/22 18:18:27;;;;;;;12.70;11.80;;;;;;;22.59;46.08;100304.13;10502716;28;20051;-70
2021/07/22 18:23:31;;;;;;;13.35;12.43;;;;;;;22.42;48.01;100305.41;10484750;28;20047;-70
2021/07/22 18:28:32;;;;;;;14.85;13.38;;;;;;;22.24;48.55;100309.50;10502081;28;20520;-71
2021/07/22 18:33:50;;;;;;;14.07;13.00;;;;;;;22.24;50.07;100313.03;10501934;28;20052;-70
2021/07/22 18:38:55;;;;;;;13.60;12.55;;;;;;;21.96;51.62;100305.31;10502047;28;20506;-71
2021/07/22 18:43:57;;;;;;;13.95;12.93;;;;;;;21.79;52.80;100317.31;10501883;28;20044;-70
2021/07/22 18:48:59;;;;;;;12.23;11.25;;;;;;;21.70;52.53;100312.63;10501324;28;20051;-69
2021/07/22 18:54:00;;;;;;;12.75;11.75;;;;;;;21.71;53.95;100314.34;10500304;28;20040;-69
2021/07/22 18:59:02;;;;;;;13.98;13.00;;;;;;;21.37;54.52;100314.09;10482599;28;20079;-70
2021/07/22 19:04:04;;;;;;;14.57;13.23;;;;;;;21.18;55.28;100306.53;10500732;28;20489;-71
2021/07/22 19:09:05;;;;;;;14.85;13.68;;;;;;;21.05;55.73;100325.25;10501896;28;20082;-70
2021/07/22 19:14:07;;;;;;;15.85;14.52;;;;;;;20.75;55.77;100330.06;10500763;28;20045;-69
2021/07/22 19:19:09;;;;;;;14.48;13.48;;;;;;;20.48;56.88;100339.03;10500654;28;20036;-71
2021/07/22 19:24:15;;;;;;;15.35;14.20;;;;;;;20.27;58.83;100335.94;10482341;28;20437;-70
2021/07/22 19:29:17;;;;;;;16.23;14.90;;;;;;;20.01;59.90;100348.38;10482101;28;20047;-70
2021/07/22 19:34:19;;;;;;;17.40;15.13;;;;;;;20.07;59.34;100350.63;10500600;28;20498;-70
2021/07/22 19:39:20;;;;;;;16.10;14.68;;;;;;;19.90;60.45;100346.41;10481893;28;20118;-70
2021/07/22 19:44:22;;;;;;;16.58;15.27;;;;;;;20.01;60.06;100353.72;10499010;28;20051;-70
2021/07/22 19:49:23;;;;;;;15.80;14.65;;;;;;;19.92;60.29;100354.31;10499518;28;20040;-69
2021/07/22 19:54:25;;;;;;;15.20;13.90;;;;;;;19.58;61.33;100355.63;10498659;28;20051;-71
2021/07/22 19:59:27;;;;;;;14.77;13.68;;;;;;;19.41;62.59;100359.34;10498558;28;20048;-72
2021/07/22 20:04:28;;;;;;;15.32;14.25;;;;;;;19.39;62.51;100361.28;10498273;28;20044;-70
2021/07/22 20:09:31;;;;;;;16.00;14.88;;;;;;;19.39;62.71;100362.13;10498678;28;20401;-70
2021/07/22 20:14:32;;;;;;;15.70;14.50;;;;;;;19.20;63.06;100360.69;10501638;28;20056;-71
2021/07/22 20:19:34;;;;;;;15.80;14.60;;;;;;;19.09;63.60;100350.72;10522054;22;20024;-73
2021/07/22 20:24:39;;;;;;;15.45;14.32;;;;;;;18.90;64.21;100357.19;10500064;28;20049;-72
2021/07/22 20:29:41;;;;;;;15.48;14.38;;;;;;;18.92;64.53;100357.06;10492458;28;20101;-73
2021/07/22 20:34:43;;;;;;;14.93;13.75;;;;;;;18.94;64.15;100357.81;10488431;28;20184;-72
2021/07/22 20:39:45;;;;;;;14.82;13.70;;;;;;;18.78;65.34;100360.59;10506865;28;20045;-73
2021/07/22 20:44:46;;;;;;;15.75;14.55;;;;;;;18.78;65.29;100357.94;10507326;28;20036;-73
2021/07/22 20:49:48;;;;;;;15.57;14.18;;;;;;;18.52;66.21;100355.94;10489829;28;20045;-72
2021/07/22 20:54:49;;;;;;;16.15;14.68;;;;;;;18.42;66.61;100355.63;10490303;28;20512;-73
2021/07/22 20:59:51;;;;;;;16.95;15.65;;;;;;;18.39;66.88;100354.00;10489133;28;20052;-73
2021/07/22 21:04:53;;;;;;;15.30;14.15;;;;;;;18.18;67.34;100355.25;10488935;28;20051;-74
2021/07/22 21:09:55;;;;;;;16.27;15.05;;;;;;;18.42;66.56;100344.97;10508463;28;20036;-74
2021/07/22 21:14:56;;;;;;;15.63;14.38;;;;;;;18.39;66.55;100353.13;10487694;28;20048;-72
2021/07/22 21:19:58;;;;;;;16.75;15.20;;;;;;;18.26;67.02;100345.03;10487392;28;20063;-72
2021/07/22 21:24:59;;;;;;;16.05;14.75;;;;;;;18.10;68.01;100341.53;10505859;28;20098;-73
2021/07/22 21:30:01;;;;;;;15.85;14.35;;;;;;;17.88;68.93;100347.22;10487606;28;20036;-73
2021/07/22 21:35:03;;;;;;;16.35;15.05;;;;;;;17.77;69.18;100341.69;10506483;28;20052;-73
2021/07/22 21:40:06;;;;;;;16.02;14.57;;;;;;;17.57;69.67;100340.09;10494736;28;20059;-73
2021/07/22 21:45:08;;;;;;;15.15;14.05;;;;;;;17.84;69.46;100341.25;10509430;28;20504;-73
2021/07/22 21:50:11;;;;;;;15.40;14.20;;;;;;;17.68;69.48;100336.84;10488925;28;20037;-72
2021/07/22 21:55:13;;;;;;;16.38;14.95;;;;;;;17.59;69.69;100336.41;10504459;28;20044;-73
2021/07/22 22:00:15;;;;;;;17.08;15.50;;;;;;;17.55;69.51;100334.88;10503439;28;20064;-72
2021/07/22 22:05:17;;;;;;;16.52;15.32;;;;;;;17.35;70.76;100337.75;10503156;28;20135;-72
2021/07/22 22:10:18;;;;;;;17.75;16.00;;;;;;;17.20;71.02;100333.31;10508798;28;20107;-72
2021/07/22 22:15:21;;;;;;;17.95;16.67;;;;;;;17.21;70.93;100333.19;10511641;28;20135;-72
2021/07/22 22:20:23;;;;;;;19.45;17.95;;;;;;;17.18;70.77;100341.38;10516501;28;20370;-72
2021/07/22 22:25:36;;;;;;;20.08;18.50;;;;;;;17.33;69.94;100335.19;10507078;28;20060;-72
2021/07/22 22:30:38;;;;;;;20.63;19.02;;;;;;;16.97;71.37;100338.06;10497044;28;20037;-71
2021/07/22 22:35:41;;;;;;;20.77;19.17;;;;;;;16.84;71.74;100340.50;10492974;28;20059;-72
2021/07/22 22:40:57;;;;;;;20.25;18.30;;;;;;;16.86;71.38;100343.91;10507150;28;20041;-72
2021/07/22 22:45:59;;;;;;;21.85;20.05;;;;;;;17.06;71.08;100340.22;10503679;28;20127;-72
2021/07/22 22:51:01;;;;;;;20.38;18.70;;;;;;;17.17;70.26;100346.75;10502273;28;20044;-72
2021/07/22 22:56:03;;;;;;;20.25;18.55;;;;;;;16.92;71.89;100348.06;10501600;28;20036;-72
2021/07/22 23:01:05;;;;;;;20.52;19.02;;;;;;;16.76;71.98;100355.09;10501607;28;20040;-72